Time;durP1;ratioP1;P1;durP2;ratioP2;P2;SDS_P1;SDS_P2;PMS_P1;PMS_P2;Temp;Humidity;BMP_temperature;BMP_pressure;BME280_temperature;BME280_humidity;BME280_pressure;Samples;Min_cycle;Max_cycle;Signal;HPM_P1;HPM_P2
2022/06/23 00:00:29;;;;;;;6.38;2.15;;;;;;;14.45;100.00;98080.91;5148677;27;20035;-95
2022/06/23 00:02:56;;;;;;;7.13;2.75;;;;;;;13.98;100.00;98084.25;5145255;27;20046;-95
2022/06/23 00:05:25;;;;;;;7.78;2.75;;;;;;;13.91;100.00;98088.84;5142366;27;20019;-94
2022/06/23 00:07:56;;;;;;;7.25;2.35;;;;;;;13.87;100.00;98094.25;5133203;27;20103;-95
2022/06/23 00:10:32;;;;;;;7.75;2.45;;;;;;;13.86;100.00;98095.16;5136329;27;20054;-94
2022/06/23 00:12:59;;;;;;;7.07;2.42;;;;;;;13.83;100.00;98091.75;5134686;27;20092;-94
2022/06/23 00:15:27;;;;;;;6.63;2.53;;;;;;;13.69;100.00;98087.84;5136143;27;20034;-95
2022/06/23 00:17:55;;;;;;;6.63;2.35;;;;;;;13.64;100.00;98083.63;5132553;27;20762;-95
2022/06/23 00:20:30;;;;;;;7.72;2.28;;;;;;;13.55;100.00;98075.19;5134173;27;20351;-94
2022/06/23 00:23:21;;;;;;;7.10;2.47;;;;;;;13.52;100.00;98076.16;5133367;27;20019;-95
2022/06/23 00:26:11;;;;;;;7.32;2.80;;;;;;;13.45;100.00;98091.19;5134465;27;20071;-94
2022/06/23 00:28:36;;;;;;;7.00;2.70;;;;;;;13.48;100.00;98085.84;5134102;27;20500;-94
2022/06/23 00:31:19;;;;;;;7.03;2.78;;;;;;;13.47;100.00;98070.19;5132115;27;20030;-94
2022/06/23 00:33:47;;;;;;;6.90;2.95;;;;;;;13.46;100.00;98074.56;5136296;27;20748;-95
2022/06/23 00:36:24;;;;;;;8.30;2.90;;;;;;;13.41;100.00;98067.78;5131527;27;20482;-94
2022/06/23 00:38:50;;;;;;;8.57;3.35;;;;;;;13.40;100.00;98077.41;5131751;27;20080;-94
2022/06/23 00:41:20;;;;;;;10.25;3.47;;;;;;;13.42;100.00;98069.50;5129238;27;20039;-93
2022/06/23 00:43:50;;;;;;;9.20;3.58;;;;;;;13.36;100.00;98072.28;5140475;27;20072;-94
2022/06/23 00:46:43;;;;;;;8.30;3.40;;;;;;;13.26;100.00;98079.53;5133561;27;20062;-94
2022/06/23 00:49:17;;;;;;;8.77;3.00;;;;;;;13.18;100.00;98074.56;5136227;27;20038;-94
2022/06/23 00:51:50;;;;;;;7.63;3.05;;;;;;;13.11;100.00;98076.50;5131635;27;20271;-94
2022/06/23 00:54:29;;;;;;;9.02;3.20;;;;;;;13.05;100.00;98076.66;5131336;27;20070;-94
2022/06/23 00:56:58;;;;;;;8.18;3.20;;;;;;;13.13;100.00;98073.84;5130508;27;20030;-93
2022/06/23 00:59:32;;;;;;;7.22;3.22;;;;;;;13.04;100.00;98066.25;5128211;27;20701;-93
2022/06/23 01:02:04;;;;;;;9.77;3.20;;;;;;;12.95;100.00;98068.22;5132662;27;20119;-94
2022/06/23 01:05:19;;;;;;;10.83;3.37;;;;;;;13.03;100.00;98082.88;5134038;27;20028;-94
2022/06/23 01:08:21;;;;;;;8.73;3.30;;;;;;;13.00;100.00;98070.75;5118901;27;20031;-95
2022/06/23 01:11:09;;;;;;;12.73;4.03;;;;;;;13.06;100.00;98065.31;5132090;27;20123;-93
2022/06/23 01:13:40;;;;;;;8.88;4.00;;;;;;;13.10;100.00;98072.16;5130036;27;20572;-93
2022/06/23 01:17:02;;;;;;;11.10;4.38;;;;;;;13.21;100.00;98061.38;5133306;27;20387;-94
2022/06/23 01:20:00;;;;;;;11.48;4.65;;;;;;;13.34;100.00;98072.31;5066711;28;20152;-94
2022/06/23 01:22:50;;;;;;;12.15;4.25;;;;;;;13.41;100.00;98057.28;5050323;28;20092;-93
2022/06/23 01:25:30;;;;;;;11.25;4.60;;;;;;;13.45;100.00;98061.53;5050239;28;20431;-93
2022/06/23 01:28:28;;;;;;;10.93;4.75;;;;;;;13.36;100.00;98059.19;5050648;28;20154;-95
2022/06/23 01:31:14;;;;;;;10.82;4.25;;;;;;;13.41;100.00;98046.81;5055883;28;20025;-93
2022/06/23 01:33:58;;;;;;;10.13;4.95;;;;;;;13.57;100.00;98044.53;5056494;28;20048;-94
2022/06/23 01:36:32;;;;;;;12.50;4.93;;;;;;;13.35;100.00;98041.72;5070099;28;20032;-93
2022/06/23 01:39:19;;;;;;;12.07;4.80;;;;;;;13.37;100.00;98043.44;5054705;28;20045;-95
2022/06/23 01:41:57;;;;;;;11.65;5.35;;;;;;;13.37;100.00;98039.97;5063487;28;20051;-94
2022/06/23 01:44:51;;;;;;;12.43;4.88;;;;;;;13.26;100.00;98042.88;5070787;28;20320;-95
2022/06/23 01:47:46;;;;;;;10.18;4.72;;;;;;;13.12;100.00;98044.19;5054542;28;20401;-96
2022/06/23 01:50:14;;;;;;;9.57;4.35;;;;;;;13.26;100.00;98038.53;5049300;28;20032;-95
2022/06/23 01:52:47;;;;;;;9.50;4.80;;;;;;;13.40;100.00;98037.25;5076926;27;20031;-96
2022/06/23 01:55:29;;;;;;;10.48;5.05;;;;;;;13.27;100.00;98029.75;5132891;27;20043;-95
2022/06/23 01:58:05;;;;;;;10.60;4.50;;;;;;;13.14;100.00;98025.81;5131714;27;20092;-94
2022/06/23 02:00:31;;;;;;;9.05;4.32;;;;;;;13.20;100.00;98036.09;5131789;27;20034;-95
2022/06/23 02:03:22;;;;;;;10.30;4.80;;;;;;;13.16;100.00;98039.69;5131283;27;20105;-94
2022/06/23 02:06:02;;;;;;;9.27;3.92;;;;;;;13.08;100.00;98033.84;5131632;27;20410;-95
2022/06/23 02:08:50;;;;;;;10.35;4.72;;;;;;;13.15;100.00;98040.59;5133213;27;20094;-93
2022/06/23 02:11:45;;;;;;;9.98;4.65;;;;;;;13.17;100.00;98030.09;5127384;27;20027;-94
2022/06/23 02:14:38;;;;;;;11.10;4.47;;;;;;;13.08;100.00;98033.84;5130851;27;20033;-94
2022/06/23 02:17:15;;;;;;;11.38;4.57;;;;;;;13.25;100.00;98031.56;5127884;27;20055;-93
2022/06/23 02:19:55;;;;;;;12.55;4.70;;;;;;;13.29;100.00;98032.31;5131073;27;20031;-95
2022/06/23 02:22:27;;;;;;;9.73;4.35;;;;;;;13.39;100.00;98035.53;5143303;27;20161;-95
2022/06/23 02:25:04;;;;;;;13.18;4.95;;;;;;;13.46;100.00;98035.28;5147979;27;20031;-93
2022/06/23 02:27:51;;;;;;;12.05;4.50;;;;;;;13.48;100.00;98035.22;5141350;27;20027;-94
2022/06/23 02:30:24;;;;;;;11.45;4.32;;;;;;;13.51;100.00;98031.66;5129935;27;20019;-95
2022/06/23 02:33:12;;;;;;;9.82;4.32;;;;;;;13.43;100.00;98024.03;5135157;27;20023;-95
2022/06/23 02:35:46;;;;;;;10.52;4.70;;;;;;;13.38;100.00;98023.34;5135981;27;20019;-93
2022/06/23 02:38:23;;;;;;;9.55;4.47;;;;;;;13.37;100.00;98019.84;5148464;27;20027;-93
2022/06/23 02:40:56;;;;;;;11.13;3.97;;;;;;;13.35;100.00;98018.16;5150469;27;20033;-94
2022/06/23 02:43:28;;;;;;;10.32;4.50;;;;;;;13.36;100.00;98025.16;5134000;27;20055;-93
2022/06/23 02:46:09;;;;;;;10.07;4.68;;;;;;;13.42;100.00;98027.59;5134589;27;20038;-93
2022/06/23 02:48:57;;;;;;;10.88;4.50;;;;;;;13.45;100.00;98024.88;5133412;27;20042;-94
2022/06/23 02:51:51;;;;;;;10.48;4.40;;;;;;;13.44;100.00;98023.13;5114249;28;20096;-92
2022/06/23 02:54:34;;;;;;;10.43;4.50;;;;;;;13.38;100.00;98025.97;5127562;27;20126;-93
2022/06/23 02:57:18;;;;;;;9.40;4.60;;;;;;;13.52;100.00;98028.16;5129053;27;20105;-94
2022/06/23 02:59:53;;;;;;;10.38;4.63;;;;;;;13.63;100.00;98012.94;5130634;27;20035;-94
2022/06/23 03:02:28;;;;;;;9.73;4.70;;;;;;;13.68;100.00;98018.00;5130217;27;20027;-94
2022/06/23 03:05:02;;;;;;;9.13;4.35;;;;;;;13.74;100.00;98020.44;5131445;27;20019;-94
2022/06/23 03:07:37;;;;;;;11.73;4.85;;;;;;;13.79;100.00;98013.25;5128693;27;20031;-93
2022/06/23 03:10:38;;;;;;;10.40;5.03;;;;;;;13.76;100.00;98005.50;5129646;27;20020;-93
2022/06/23 03:13:14;;;;;;;11.55;4.65;;;;;;;13.83;100.00;98002.63;5105224;27;20027;-94
2022/06/23 03:15:53;;;;;;;9.10;4.22;;;;;;;13.66;100.00;98002.34;5125698;28;20027;-94
2022/06/23 03:18:35;;;;;;;10.57;4.53;;;;;;;13.50;100.00;97996.75;5130073;27;20023;-95
2022/06/23 03:21:04;;;;;;;11.13;4.70;;;;;;;13.61;100.00;97991.13;5128518;27;20052;-94
2022/06/23 03:23:41;;;;;;;11.82;4.97;;;;;;;13.65;100.00;97998.88;5132489;27;20029;-94
2022/06/23 03:26:21;;;;;;;10.00;4.30;;;;;;;13.52;100.00;98000.19;5131007;27;20516;-94
2022/06/23 03:29:06;;;;;;;9.48;4.60;;;;;;;13.55;100.00;97991.38;5128562;27;20400;-93
2022/06/23 03:31:45;;;;;;;12.57;4.30;;;;;;;13.52;100.00;97992.31;5131787;27;20031;-94
2022/06/23 03:34:32;;;;;;;12.32;4.18;;;;;;;13.52;100.00;97988.84;5130457;27;20023;-94
2022/06/23 03:37:04;;;;;;;11.80;4.60;;;;;;;13.43;100.00;97990.88;5131034;27;20113;-94
2022/06/23 03:42:34;;;;;;;9.10;4.07;;;;;;;13.17;100.00;97988.22;5134279;27;20056;-93
2022/06/23 03:45:02;;;;;;;9.57;3.53;;;;;;;13.21;100.00;97995.03;5145276;27;20007;-95
2022/06/23 03:47:58;;;;;;;10.05;3.58;;;;;;;13.27;100.00;97993.09;5146765;27;20046;-93
2022/06/23 03:50:31;;;;;;;7.72;3.50;;;;;;;13.16;100.00;97992.56;5140073;27;20071;-94
2022/06/23 03:53:16;;;;;;;9.68;4.13;;;;;;;13.02;100.00;97982.53;5129998;27;20083;-94
2022/06/23 03:55:51;;;;;;;8.07;3.50;;;;;;;12.93;100.00;97977.56;5149192;27;20068;-93
2022/06/23 03:58:28;;;;;;;7.53;3.53;;;;;;;13.01;100.00;97986.06;5151662;27;20168;-93
2022/06/23 04:01:22;;;;;;;9.25;3.58;;;;;;;12.95;100.00;97987.09;5135771;27;20106;-94
2022/06/23 04:03:57;;;;;;;9.13;3.58;;;;;;;12.90;100.00;97983.78;5134913;27;20026;-93
2022/06/23 04:06:38;;;;;;;10.45;3.60;;;;;;;12.92;100.00;97984.59;5131532;27;20098;-94
2022/06/23 04:09:09;;;;;;;8.93;3.83;;;;;;;13.00;100.00;97988.72;5135634;27;20037;-93
2022/06/23 04:11:47;;;;;;;8.55;3.38;;;;;;;13.00;100.00;97986.97;5131243;27;20051;-93
2022/06/23 04:14:38;;;;;;;7.50;3.40;;;;;;;13.01;100.00;97985.22;5132889;27;20019;-93
2022/06/23 04:17:10;;;;;;;8.77;3.13;;;;;;;12.97;100.00;97987.06;5130647;27;20096;-94
2022/06/23 04:19:36;;;;;;;11.13;3.50;;;;;;;12.87;100.00;97994.34;5128999;27;20062;-93
2022/06/23 04:22:15;;;;;;;8.70;3.35;;;;;;;12.87;100.00;97989.09;5131769;27;20457;-92
2022/06/23 04:24:46;;;;;;;8.45;3.38;;;;;;;12.95;100.00;97986.25;5133639;27;20082;-94
2022/06/23 04:27:22;;;;;;;7.95;3.13;;;;;;;12.98;100.00;97986.16;5131947;27;20081;-93
2022/06/23 04:29:52;;;;;;;6.68;2.67;;;;;;;12.87;100.00;97986.47;5133653;27;20019;-94
2022/06/23 04:32:29;;;;;;;7.63;3.00;;;;;;;12.82;100.00;97993.63;5130462;27;20019;-93
2022/06/23 04:35:16;;;;;;;8.63;2.90;;;;;;;12.86;100.00;97991.75;5130152;27;20031;-94
2022/06/23 04:37:45;;;;;;;8.80;3.15;;;;;;;12.87;100.00;97989.09;5124998;27;20023;-94
2022/06/23 04:40:40;;;;;;;7.03;2.80;;;;;;;12.91;100.00;97995.09;5130280;27;20041;-93
2022/06/23 04:43:15;;;;;;;8.73;3.00;;;;;;;12.94;100.00;97984.53;5111605;27;20087;-94
2022/06/23 04:45:43;;;;;;;7.05;2.70;;;;;;;12.98;100.00;97989.66;5124151;27;20019;-94
2022/06/23 04:48:22;;;;;;;9.50;3.00;;;;;;;13.01;100.00;97993.91;5131734;27;20039;-93
2022/06/23 04:51:04;;;;;;;7.85;2.95;;;;;;;13.01;100.00;97990.44;5129244;27;20023;-94
2022/06/23 04:53:42;;;;;;;9.32;3.10;;;;;;;13.03;100.00;97993.88;5126923;27;20027;-93
2022/06/23 04:56:19;;;;;;;9.18;3.17;;;;;;;13.13;100.00;97992.69;5129648;27;20393;-93
2022/06/23 04:58:57;;;;;;;8.93;3.53;;;;;;;13.17;100.00;98002.16;5129337;27;20039;-93
2022/06/23 05:01:33;;;;;;;10.70;3.38;;;;;;;13.22;100.00;97995.00;5128701;27;20046;-93
2022/06/23 05:04:00;;;;;;;10.18;3.95;;;;;;;13.37;100.00;98003.31;5127493;27;20027;-93
2022/06/23 05:06:25;;;;;;;9.73;4.22;;;;;;;13.37;100.00;98004.16;5133881;27;20298;-93
2022/06/23 05:08:52;;;;;;;10.48;4.53;;;;;;;13.41;100.00;97997.91;5128834;27;20403;-94
2022/06/23 05:11:33;;;;;;;10.77;4.68;;;;;;;13.51;100.00;97987.97;5131697;27;20019;-94
2022/06/23 05:14:06;;;;;;;10.98;4.88;;;;;;;13.58;100.00;97997.34;5131021;27;20020;-94
2022/06/23 05:16:45;;;;;;;13.93;4.85;;;;;;;13.54;100.00;97995.75;5129213;27;20129;-94
2022/06/23 05:19:28;;;;;;;11.15;4.88;;;;;;;14.12;100.00;97979.75;5128239;27;20023;-93
2022/06/23 05:22:08;;;;;;;12.90;4.93;;;;;;;13.75;100.00;97988.06;5131406;27;20030;-94
2022/06/23 05:24:39;;;;;;;11.25;5.28;;;;;;;13.72;100.00;97988.16;5129684;27;20114;-92
2022/06/23 05:27:19;;;;;;;12.30;4.97;;;;;;;13.72;100.00;97991.63;5132476;27;20050;-93
2022/06/23 05:29:52;;;;;;;12.18;5.47;;;;;;;13.83;100.00;97996.50;5134207;27;20047;-92
2022/06/23 05:32:18;;;;;;;;;;;;;;;13.86;100.00;98006.03;5150795;27;20012;-94
2022/06/23 05:35:03;;;;;;;11.50;5.53;;;;;;;13.90;100.00;98007.66;5155117;27;19979;-91
2022/06/23 05:37:28;;;;;;;14.90;7.05;;;;;;;13.92;100.00;98001.44;5135080;27;20050;-93
2022/06/23 05:43:17;;;;;;;18.90;8.65;;;;;;;13.86;100.00;97991.16;5134414;27;20415;-94
2022/06/23 05:45:54;;;;;;;22.75;9.10;;;;;;;13.96;100.00;97997.81;5141730;27;20019;-94
2022/06/23 05:48:24;;;;;;;17.55;8.60;;;;;;;13.99;100.00;98002.94;5144559;27;20027;-94
2022/06/23 05:51:10;;;;;;;16.95;8.48;;;;;;;14.05;100.00;97999.25;5146871;27;20026;-94
2022/06/23 05:53:53;;;;;;;18.67;8.65;;;;;;;14.14;100.00;97996.31;5132202;27;20122;-94
2022/06/23 05:56:45;;;;;;;23.15;8.20;;;;;;;14.14;100.00;97998.03;5133460;27;20031;-95
2022/06/23 05:59:47;;;;;;;18.95;7.95;;;;;;;14.25;100.00;97993.31;5144183;27;20035;-93
2022/06/23 06:02:19;;;;;;;18.67;8.40;;;;;;;14.21;100.00;97988.19;5133414;27;20131;-95
2022/06/23 06:04:54;;;;;;;17.50;8.57;;;;;;;14.32;100.00;97996.53;5135097;27;20019;-95
2022/06/23 06:07:27;;;;;;;17.92;7.72;;;;;;;14.34;100.00;97982.44;5134636;27;20267;-95
2022/06/23 06:09:53;;;;;;;16.07;7.70;;;;;;;14.41;100.00;97985.72;5148118;27;20039;-94
2022/06/23 06:12:27;;;;;;;20.63;8.35;;;;;;;14.47;100.00;97980.25;5136753;27;20283;-95
2022/06/23 06:15:00;;;;;;;19.17;8.02;;;;;;;14.53;100.00;97976.53;5131711;27;20110;-95
2022/06/23 06:17:30;;;;;;;18.35;8.02;;;;;;;14.51;100.00;97975.72;5127445;27;20055;-94
2022/06/23 06:19:59;;;;;;;18.27;8.27;;;;;;;14.60;100.00;97977.13;5132938;27;20031;-95
2022/06/23 06:22:40;;;;;;;15.07;7.68;;;;;;;14.76;100.00;97972.22;5129120;27;20498;-91
2022/06/23 06:25:14;;;;;;;17.90;8.07;;;;;;;14.85;100.00;97962.22;5127639;27;20505;-93
2022/06/23 06:27:39;;;;;;;15.52;7.13;;;;;;;14.89;100.00;97960.31;5146160;27;20493;-92
2022/06/23 06:30:05;;;;;;;15.68;6.95;;;;;;;14.97;100.00;97952.13;5124073;27;20123;-92
2022/06/23 06:32:34;;;;;;;14.57;6.47;;;;;;;15.05;100.00;97952.69;5126408;27;20043;-92
2022/06/23 06:35:14;;;;;;;15.15;6.63;;;;;;;15.17;100.00;97957.44;5127938;27;20023;-92
2022/06/23 06:37:47;;;;;;;12.73;6.35;;;;;;;15.20;100.00;97951.22;5126324;27;20030;-92
2022/06/23 06:40:13;;;;;;;16.25;6.35;;;;;;;15.28;100.00;97953.50;5123926;27;20522;-93
2022/06/23 06:42:44;;;;;;;13.88;6.72;;;;;;;15.26;100.00;97952.72;5127478;27;20020;-94
2022/06/23 06:45:12;;;;;;;16.20;6.85;;;;;;;15.34;100.00;97954.13;5128880;27;20463;-94
2022/06/23 06:47:40;;;;;;;14.73;6.25;;;;;;;15.44;100.00;97953.75;5133976;27;20031;-95
2022/06/23 06:50:28;;;;;;;15.27;6.85;;;;;;;15.52;100.00;97949.03;5132087;27;20023;-93
2022/06/23 06:52:57;;;;;;;14.60;6.20;;;;;;;15.60;100.00;97939.03;5126673;27;20026;-95
2022/06/23 06:55:29;;;;;;;12.35;5.63;;;;;;;15.70;100.00;97945.59;5127031;27;20813;-94
2022/06/23 06:58:01;;;;;;;13.38;6.10;;;;;;;15.69;100.00;97946.50;5131505;27;20055;-95
2022/06/23 07:01:21;;;;;;;14.25;6.03;;;;;;;15.80;100.00;97946.09;5129788;27;20470;-94
2022/06/23 07:03:50;;;;;;;14.18;5.70;;;;;;;15.96;100.00;97934.91;5126821;27;20076;-94
2022/06/23 07:06:19;;;;;;;15.18;5.95;;;;;;;16.01;100.00;97941.66;5130890;27;20023;-94
2022/06/23 07:08:55;;;;;;;12.85;5.57;;;;;;;16.07;100.00;97932.63;5128252;27;20019;-92
2022/06/23 07:11:32;;;;;;;11.60;5.80;;;;;;;16.15;100.00;97929.69;5121546;27;20109;-92
2022/06/23 07:14:05;;;;;;;15.02;5.88;;;;;;;16.22;100.00;97920.59;5126376;27;20018;-91
2022/06/23 07:16:42;;;;;;;13.45;5.25;;;;;;;16.34;100.00;97917.41;5126346;27;20031;-92
2022/06/23 07:19:07;;;;;;;12.90;4.95;;;;;;;16.44;100.00;97909.94;5132407;27;20035;-91
2022/06/23 07:21:59;;;;;;;13.27;5.10;;;;;;;16.41;100.00;97915.34;5132061;27;20049;-92
2022/06/23 07:24:32;;;;;;;13.13;4.80;;;;;;;16.47;100.00;97903.69;5091521;27;20043;-92
2022/06/23 07:27:05;;;;;;;11.82;4.50;;;;;;;16.63;100.00;97906.44;5130462;27;20524;-90
2022/06/23 07:29:34;;;;;;;;;;;;;;;16.62;100.00;97902.94;5125312;27;20026;-91
2022/06/23 07:32:19;;;;;;;12.50;4.65;;;;;;;16.84;100.00;97907.16;5129077;27;19915;-90
2022/06/23 07:35:01;;;;;;;13.98;5.40;;;;;;;16.79;100.00;97894.25;5128726;27;20070;-91
2022/06/23 07:37:43;;;;;;;12.98;4.85;;;;;;;16.92;100.00;97898.94;5124969;27;20031;-91
2022/06/23 07:40:11;;;;;;;12.00;5.50;;;;;;;17.15;100.00;97908.38;5126418;27;20031;-90
2022/06/23 07:42:49;;;;;;;12.05;4.95;;;;;;;17.21;100.00;97910.69;5122390;27;20031;-90
2022/06/23 07:45:22;;;;;;;15.02;5.00;;;;;;;17.20;100.00;97901.94;5125130;27;20027;-91
2022/06/23 07:47:48;;;;;;;12.20;4.82;;;;;;;17.34;100.00;97906.53;5127014;27;20031;-91
2022/06/23 07:50:14;;;;;;;11.57;4.47;;;;;;;17.22;100.00;97897.44;5131317;27;20100;-91
2022/06/23 07:52:41;;;;;;;13.30;4.80;;;;;;;17.65;100.00;97901.47;5137252;27;20027;-90
2022/06/23 07:55:17;;;;;;;13.10;5.32;;;;;;;17.50;100.00;97896.03;5133263;27;20286;-92
2022/06/23 07:57:42;;;;;;;11.40;4.90;;;;;;;17.65;100.00;97896.19;5132236;27;20035;-89
2022/06/23 08:00:08;;;;;;;15.15;4.90;;;;;;;17.65;100.00;97883.84;5158729;27;20054;-91
2022/06/23 08:02:52;;;;;;;14.93;5.10;;;;;;;17.54;100.00;97881.75;5143970;27;20019;-91
2022/06/23 08:05:34;;;;;;;13.30;5.30;;;;;;;19.24;100.00;97879.63;5121988;27;20027;-91
2022/06/23 08:08:01;;;;;;;14.45;5.00;;;;;;;18.73;100.00;97880.72;5172566;27;20037;-92
2022/06/23 08:10:30;;;;;;;12.70;4.85;;;;;;;18.28;100.00;97881.47;5143425;27;20042;-90
2022/06/23 08:13:02;;;;;;;13.32;5.35;;;;;;;18.33;100.00;97872.38;5129717;27;20514;-89
2022/06/23 08:18:43;;;;;;;13.27;4.78;;;;;;;18.57;100.00;97879.88;5147987;27;20038;-91
2022/06/23 08:21:41;;;;;;;16.23;4.95;;;;;;;18.79;100.00;97878.66;5134582;27;20031;-91
2022/06/23 08:24:11;;;;;;;11.82;4.60;;;;;;;18.97;100.00;97876.78;5121665;27;20038;-91
2022/06/23 08:26:39;;;;;;;11.82;4.13;;;;;;;18.80;100.00;97869.78;5129000;27;20031;-92
2022/06/23 08:29:10;;;;;;;12.48;4.75;;;;;;;18.99;100.00;97869.63;5132583;27;20022;-90
2022/06/23 08:31:37;;;;;;;11.38;4.03;;;;;;;19.26;100.00;97868.03;5132012;27;20038;-91
2022/06/23 08:34:04;;;;;;;11.68;4.55;;;;;;;19.35;100.00;97861.34;5128260;27;20122;-91
2022/06/23 08:36:47;;;;;;;14.20;4.55;;;;;;;19.22;100.00;97869.16;5129167;27;20034;-90
2022/06/23 08:39:19;;;;;;;11.88;4.15;;;;;;;19.39;100.00;97854.09;5138763;27;20117;-91
2022/06/23 08:41:58;;;;;;;14.02;5.40;;;;;;;19.33;100.00;97863.22;5135024;27;20029;-91
2022/06/23 08:45:04;;;;;;;15.65;5.05;;;;;;;19.37;100.00;97855.94;5130940;27;20038;-92
2022/06/23 08:48:01;;;;;;;13.63;4.82;;;;;;;19.51;100.00;97853.34;5085767;27;20542;-90
2022/06/23 08:50:44;;;;;;;11.10;4.50;;;;;;;19.72;100.00;97848.56;5086757;27;20051;-88
2022/06/23 08:53:29;;;;;;;13.00;5.10;;;;;;;19.70;100.00;97846.94;5118281;27;20036;-89
2022/06/23 08:56:12;;;;;;;11.52;4.90;;;;;;;19.90;100.00;97845.75;5134653;27;20763;-90
2022/06/23 08:58:37;;;;;;;16.45;5.50;;;;;;;19.84;100.00;97840.84;5131826;27;20096;-90
2022/06/23 09:01:15;;;;;;;10.20;4.50;;;;;;;20.03;100.00;97845.84;5127812;27;20458;-90
2022/06/23 09:03:52;;;;;;;12.20;5.00;;;;;;;19.80;100.00;97845.44;5128827;27;20035;-90
2022/06/23 09:06:38;;;;;;;11.27;5.13;;;;;;;21.31;100.00;97838.44;5131292;27;20023;-90
2022/06/23 09:09:33;;;;;;;9.07;3.85;;;;;;;22.20;100.00;97832.38;5132428;27;20232;-93
2022/06/23 09:12:16;;;;;;;10.65;4.20;;;;;;;22.34;100.00;97832.28;5132285;27;20034;-93
2022/06/23 09:15:25;;;;;;;10.82;4.20;;;;;;;22.27;100.00;97823.03;5136925;27;20470;-91
2022/06/23 09:18:11;;;;;;;10.98;4.68;;;;;;;22.67;100.00;97822.78;5121931;27;20043;-89
2022/06/23 09:20:43;;;;;;;10.95;4.05;;;;;;;21.62;100.00;97820.44;5123710;27;20028;-89
2022/06/23 09:23:39;;;;;;;15.65;5.60;;;;;;;22.40;100.00;97825.66;5115731;27;20047;-88
2022/06/23 09:26:07;;;;;;;12.80;4.88;;;;;;;22.61;100.00;97821.44;5122665;27;20057;-90
2022/06/23 09:28:54;;;;;;;9.70;4.63;;;;;;;22.76;100.00;97819.47;5126383;27;20035;-90
2022/06/23 09:31:44;;;;;;;10.80;4.40;;;;;;;23.13;100.00;97813.22;5120474;27;20100;-90
2022/06/23 09:34:46;;;;;;;13.00;5.20;;;;;;;23.05;100.00;97804.94;5123327;27;20116;-92
2022/06/23 09:37:37;;;;;;;10.52;5.07;;;;;;;23.62;100.00;97808.59;5125259;27;20027;-90
2022/06/23 09:40:33;;;;;;;15.20;5.18;;;;;;;23.47;100.00;97800.00;5125937;27;20034;-90
2022/06/23 09:43:04;;;;;;;12.48;5.43;;;;;;;23.43;100.00;97791.41;5125421;27;20031;-91
2022/06/23 09:45:51;;;;;;;10.07;4.60;;;;;;;23.82;100.00;97783.09;5126355;27;20095;-89
2022/06/23 09:48:33;;;;;;;12.63;4.85;;;;;;;23.82;100.00;97794.56;5129281;27;20038;-90
2022/06/23 09:51:44;;;;;;;11.18;4.47;;;;;;;23.82;100.00;97791.91;5143186;27;20104;-91
2022/06/23 09:54:29;;;;;;;12.82;4.35;;;;;;;24.02;100.00;97785.06;5092629;28;20126;-91
2022/06/23 09:57:10;;;;;;;10.75;4.57;;;;;;;24.15;100.00;97781.41;5117022;27;20031;-92
2022/06/23 10:00:03;;;;;;;9.32;4.00;;;;;;;24.42;100.00;97780.97;5128150;27;20402;-91
2022/06/23 10:02:39;;;;;;;11.23;3.65;;;;;;;24.21;100.00;97778.22;5124598;27;20045;-91
2022/06/23 10:05:38;;;;;;;9.38;3.80;;;;;;;24.56;100.00;97781.66;5120225;27;20042;-91
2022/06/23 10:08:13;;;;;;;10.13;3.85;;;;;;;24.47;100.00;97778.78;5126289;27;20040;-89
2022/06/23 10:10:50;;;;;;;9.82;3.20;;;;;;;22.44;100.00;97776.66;5131901;27;20031;-92
2022/06/23 10:13:45;;;;;;;9.52;2.67;;;;;;;23.22;100.00;97771.78;5141558;27;20645;-93
2022/06/23 10:16:28;;;;;;;8.02;2.83;;;;;;;24.33;100.00;97768.41;5145692;27;20036;-94
2022/06/23 10:19:04;;;;;;;;;;;;;;;27.53;96.62;97759.22;5132462;28;20023;-94
2022/06/23 10:21:57;;;;;;;7.65;2.80;;;;;;;28.04;91.26;97759.75;5138979;27;19915;-96
2022/06/23 10:24:49;;;;;;;9.70;2.85;;;;;;;28.67;86.58;97763.47;5147488;22;20053;-92
2022/06/23 10:27:35;;;;;;;15.07;3.00;;;;;;;27.46;82.26;97758.97;5070048;28;20036;-92
2022/06/23 10:30:15;;;;;;;8.07;2.15;;;;;;;28.80;81.19;97766.63;5057290;28;20045;-94
2022/06/23 10:33:02;;;;;;;9.20;3.10;;;;;;;28.56;75.55;97756.44;5041869;28;20163;-93
2022/06/23 10:35:33;;;;;;;8.35;2.70;;;;;;;29.12;77.14;97765.19;5053639;28;20039;-93
2022/06/23 10:38:14;;;;;;;9.43;2.60;;;;;;;28.48;74.86;97762.59;5071798;28;20039;-92
2022/06/23 10:40:55;;;;;;;8.98;2.80;;;;;;;27.68;77.75;97757.78;5054801;28;20048;-93
2022/06/23 10:43:36;;;;;;;8.55;2.90;;;;;;;28.13;80.51;97753.50;5054165;28;20099;-93
2022/06/23 10:46:01;;;;;;;7.85;2.47;;;;;;;26.88;86.98;97758.03;5051818;28;20032;-92
2022/06/23 10:48:42;;;;;;;8.75;2.80;;;;;;;26.74;91.58;97755.81;5054362;28;20086;-92
2022/06/23 10:51:27;;;;;;;7.78;2.58;;;;;;;26.37;87.01;97746.63;5080467;28;20028;-93
2022/06/23 10:54:02;;;;;;;8.43;2.90;;;;;;;25.67;91.81;97740.34;5057842;28;20029;-92
2022/06/23 10:56:40;;;;;;;7.93;2.83;;;;;;;25.75;90.28;97731.63;5061634;28;20494;-92
2022/06/23 10:59:16;;;;;;;7.43;2.45;;;;;;;26.33;92.28;97747.00;5086671;28;20024;-92
2022/06/23 11:02:27;;;;;;;7.97;2.60;;;;;;;25.90;89.13;97731.16;5068114;28;20041;-92
2022/06/23 11:05:12;;;;;;;7.25;2.38;;;;;;;25.51;92.83;97724.81;5054935;28;20083;-92
2022/06/23 11:07:59;;;;;;;8.95;3.10;;;;;;;26.03;87.05;97714.06;5065858;28;20495;-93
2022/06/23 11:10:54;;;;;;;8.38;2.53;;;;;;;28.27;73.96;97714.63;5039321;28;20492;-92
2022/06/23 11:13:36;;;;;;;6.70;2.50;;;;;;;28.43;76.53;97728.19;5021251;28;20038;-93
2022/06/23 11:16:29;;;;;;;9.18;2.50;;;;;;;27.49;69.55;97723.00;4994835;28;20029;-92
2022/06/23 11:19:42;;;;;;;7.50;2.63;;;;;;;26.81;76.39;97716.81;5009594;28;20551;-92
2022/06/23 11:22:17;;;;;;;10.25;2.70;;;;;;;28.00;71.96;97710.13;5027079;28;20053;-94
2022/06/23 11:25:10;;;;;;;9.07;2.90;;;;;;;28.34;69.22;97717.53;5027807;28;20053;-93
2022/06/23 11:28:04;;;;;;;7.43;2.72;;;;;;;27.61;63.26;97708.44;5024986;28;20041;-94
2022/06/23 11:30:57;;;;;;;9.73;3.22;;;;;;;28.14;66.11;97704.22;5011964;28;20041;-94
2022/06/23 11:34:11;;;;;;;11.60;3.38;;;;;;;28.37;65.14;97698.44;4993431;28;20058;-92
2022/06/23 11:36:54;;;;;;;8.85;3.00;;;;;;;28.08;65.90;97692.28;4957305;28;20050;-93
2022/06/23 11:39:21;;;;;;;;;;;;;;;28.55;64.39;97691.25;4971476;28;20054;-93
2022/06/23 11:42:17;;;;;;;7.75;3.00;;;;;;;27.89;67.93;97690.56;5002428;28;19914;-93
2022/06/23 11:44:55;;;;;;;9.52;2.95;;;;;;;28.80;65.40;97686.13;4999953;28;20039;-93
2022/06/23 11:47:41;;;;;;;8.27;2.60;;;;;;;27.76;67.95;97682.00;5000786;28;20055;-93
2022/06/23 11:50:39;;;;;;;8.90;2.75;;;;;;;27.09;74.31;97680.28;5000607;28;20050;-93
2022/06/23 11:53:28;;;;;;;8.38;2.80;;;;;;;27.26;73.96;97685.88;4981230;28;20037;-93
2022/06/23 11:56:46;;;;;;;8.15;2.90;;;;;;;26.49;76.70;97679.66;4974303;28;20121;-94
2022/06/23 11:59:20;;;;;;;7.45;2.60;;;;;;;27.15;70.67;97683.38;4987848;28;20042;-93
2022/06/23 12:01:45;;;;;;;9.57;2.92;;;;;;;25.36;87.65;97679.78;4981126;28;20055;-93
2022/06/23 12:04:42;;;;;;;10.32;3.03;;;;;;;27.74;73.22;97684.84;5002440;28;20050;-93
2022/06/23 12:07:10;;;;;;;8.02;2.83;;;;;;;27.90;71.63;97675.31;4973043;28;20038;-93
2022/06/23 12:10:09;;;;;;;9.80;3.20;;;;;;;27.75;73.90;97674.97;4983033;28;20190;-93
2022/06/23 12:12:35;;;;;;;8.15;3.00;;;;;;;25.70;76.25;97681.31;4994880;28;20033;-93
2022/06/23 12:15:13;;;;;;;8.77;2.88;;;;;;;25.18;84.02;97676.03;5013782;28;20561;-93
2022/06/23 12:17:54;;;;;;;9.00;3.30;;;;;;;26.13;79.26;97674.81;5013931;28;20581;-94
2022/06/23 12:20:35;;;;;;;12.68;3.25;;;;;;;25.28;81.53;97676.91;5032840;28;20025;-93
2022/06/23 12:23:16;;;;;;;8.73;3.13;;;;;;;26.79;81.27;97669.78;5011524;28;20106;-90
2022/06/23 12:25:57;;;;;;;9.35;3.15;;;;;;;27.79;72.57;97664.81;5008944;28;20136;-92
2022/06/23 12:28:49;;;;;;;10.50;2.65;;;;;;;27.39;83.00;97658.78;5019776;28;20046;-92